sensor_id;sensor_type;location;lat;lon;timestamp;temperature;humidity
53782;DHT22;39692;53.114;7.060;2023-03-01T13:26:03;20.70;69.60
53782;DHT22;39692;53.114;7.060;2023-03-01T13:28:36;20.50;71.40
53782;DHT22;39692;53.114;7.060;2023-03-01T13:31:04;20.50;71.30
53782;DHT22;39692;53.114;7.060;2023-03-01T13:35:59;19.80;72.60
53782;DHT22;39692;53.114;7.060;2023-03-01T13:41:09;17.10;74.80
53782;DHT22;39692;53.114;7.060;2023-03-01T13:43:36;16.00;78.00
53782;DHT22;39692;53.114;7.060;2023-03-01T13:46:29;15.40;79.90
53782;DHT22;39692;53.114;7.060;2023-03-01T13:48:56;14.50;82.20
53782;DHT22;39692;53.114;7.060;2023-03-01T13:51:27;13.80;83.10
53782;DHT22;39692;53.114;7.060;2023-03-01T13:53:55;13.30;84.20
53782;DHT22;39692;53.114;7.060;2023-03-01T13:56:25;12.50;85.30
53782;DHT22;39692;53.114;7.060;2023-03-01T13:59:04;12.10;87.30
53782;DHT22;39692;53.114;7.060;2023-03-01T14:01:33;11.80;87.60
53782;DHT22;39692;53.114;7.060;2023-03-01T14:04:00;11.50;88.20
53782;DHT22;39692;53.114;7.060;2023-03-01T14:06:31;11.40;88.50
53782;DHT22;39692;53.114;7.060;2023-03-01T14:16:55;10.60;89.30
53782;DHT22;39692;53.114;7.060;2023-03-01T14:19:26;10.40;90.40
53782;DHT22;39692;53.114;7.060;2023-03-01T14:25:01;10.10;90.60
53782;DHT22;39692;53.114;7.060;2023-03-01T14:27:36;10.10;91.30
53782;DHT22;39692;53.114;7.060;2023-03-01T14:30:26;10.10;93.10
53782;DHT22;39692;53.114;7.060;2023-03-01T14:32:54;10.00;93.80
53782;DHT22;39692;53.114;7.060;2023-03-01T14:35:23;9.90;93.10
53782;DHT22;39692;53.114;7.060;2023-03-01T14:37:49;9.80;93.30
53782;DHT22;39692;53.114;7.060;2023-03-01T14:40:32;9.80;93.30
53782;DHT22;39692;53.114;7.060;2023-03-01T14:42:59;9.70;94.20
53782;DHT22;39692;53.114;7.060;2023-03-01T14:45:27;9.70;94.60
53782;DHT22;39692;53.114;7.060;2023-03-01T14:47:55;9.70;96.00
53782;DHT22;39692;53.114;7.060;2023-03-01T14:50:29;9.50;97.90
53782;DHT22;39692;53.114;7.060;2023-03-01T14:52:59;9.40;96.60
53782;DHT22;39692;53.114;7.060;2023-03-01T14:55:35;9.50;97.80
53782;DHT22;39692;53.114;7.060;2023-03-01T14:58:08;9.40;99.90
53782;DHT22;39692;53.114;7.060;2023-03-01T15:00:35;9.30;99.90
53782;DHT22;39692;53.114;7.060;2023-03-01T15:03:08;9.10;99.20
53782;DHT22;39692;53.114;7.060;2023-03-01T15:05:40;9.20;98.70
53782;DHT22;39692;53.114;7.060;2023-03-01T15:08:06;9.10;99.90
53782;DHT22;39692;53.114;7.060;2023-03-01T15:10:35;9.10;98.70
53782;DHT22;39692;53.114;7.060;2023-03-01T15:13:24;9.00;99.90
53782;DHT22;39692;53.114;7.060;2023-03-01T15:16:19;8.80;99.90
53782;DHT22;39692;53.114;7.060;2023-03-01T15:19:02;8.80;99.90
53782;DHT22;39692;53.114;7.060;2023-03-01T15:21:32;8.70;99.90
53782;DHT22;39692;53.114;7.060;2023-03-01T15:26:31;8.60;99.90
53782;DHT22;39692;53.114;7.060;2023-03-01T15:28:59;8.60;99.90
53782;DHT22;39692;53.114;7.060;2023-03-01T15:33:52;8.70;99.90
53782;DHT22;39692;53.114;7.060;2023-03-01T15:36:38;8.40;99.90
53782;DHT22;39692;53.114;7.060;2023-03-01T15:39:05;8.30;99.90
53782;DHT22;39692;53.114;7.060;2023-03-01T15:41:38;8.40;99.90
53782;DHT22;39692;53.114;7.060;2023-03-01T15:44:25;8.20;99.90
53782;DHT22;39692;53.114;7.060;2023-03-01T15:46:51;8.20;99.90
53782;DHT22;39692;53.114;7.060;2023-03-01T15:49:40;8.10;99.90
53782;DHT22;39692;53.114;7.060;2023-03-01T15:52:24;7.90;99.90
53782;DHT22;39692;53.114;7.060;2023-03-01T15:55:00;7.90;99.90
53782;DHT22;39692;53.114;7.060;2023-03-01T15:57:26;7.80;99.90
53782;DHT22;39692;53.114;7.060;2023-03-01T15:59:52;7.90;99.90
53782;DHT22;39692;53.114;7.060;2023-03-01T16:02:18;7.90;99.90
53782;DHT22;39692;53.114;7.060;2023-03-01T16:04:47;7.60;99.90
53782;DHT22;39692;53.114;7.060;2023-03-01T16:07:14;7.60;99.90
53782;DHT22;39692;53.114;7.060;2023-03-01T16:09:40;7.60;99.90
53782;DHT22;39692;53.114;7.060;2023-03-01T16:12:08;7.60;99.90
53782;DHT22;39692;53.114;7.060;2023-03-01T16:14:34;7.40;99.90
53782;DHT22;39692;53.114;7.060;2023-03-01T16:17:00;7.30;99.90
53782;DHT22;39692;53.114;7.060;2023-03-01T16:19:25;7.40;99.90
53782;DHT22;39692;53.114;7.060;2023-03-01T16:21:51;7.50;99.90
53782;DHT22;39692;53.114;7.060;2023-03-01T16:24:17;7.40;99.90
53782;DHT22;39692;53.114;7.060;2023-03-01T16:26:42;7.20;99.90
53782;DHT22;39692;53.114;7.060;2023-03-01T16:29:08;7.10;99.90
53782;DHT22;39692;53.114;7.060;2023-03-01T16:31:34;7.00;99.90
53782;DHT22;39692;53.114;7.060;2023-03-01T16:34:00;6.90;99.90
53782;DHT22;39692;53.114;7.060;2023-03-01T16:36:26;6.70;99.90
53782;DHT22;39692;53.114;7.060;2023-03-01T16:38:54;6.60;99.90
53782;DHT22;39692;53.114;7.060;2023-03-01T16:41:22;6.70;99.90
53782;DHT22;39692;53.114;7.060;2023-03-01T16:43:49;6.50;99.90
53782;DHT22;39692;53.114;7.060;2023-03-01T16:46:33;6.30;99.90
53782;DHT22;39692;53.114;7.060;2023-03-01T16:48:58;6.20;99.90
53782;DHT22;39692;53.114;7.060;2023-03-01T16:51:24;6.50;99.90
53782;DHT22;39692;53.114;7.060;2023-03-01T16:53:51;6.00;99.90
53782;DHT22;39692;53.114;7.060;2023-03-01T16:56:17;5.90;99.90
53782;DHT22;39692;53.114;7.060;2023-03-01T16:58:43;6.00;99.90
53782;DHT22;39692;53.114;7.060;2023-03-01T17:01:18;5.90;99.90
53782;DHT22;39692;53.114;7.060;2023-03-01T17:03:44;5.60;99.90
53782;DHT22;39692;53.114;7.060;2023-03-01T17:06:14;5.70;99.90
53782;DHT22;39692;53.114;7.060;2023-03-01T17:08:40;5.50;99.90
53782;DHT22;39692;53.114;7.060;2023-03-01T17:11:17;5.50;99.90
53782;DHT22;39692;53.114;7.060;2023-03-01T17:13:43;5.40;99.90
53782;DHT22;39692;53.114;7.060;2023-03-01T17:16:12;5.20;99.90
53782;DHT22;39692;53.114;7.060;2023-03-01T17:18:38;5.40;99.90
53782;DHT22;39692;53.114;7.060;2023-03-01T17:21:05;5.10;99.90
53782;DHT22;39692;53.114;7.060;2023-03-01T17:23:32;5.20;99.90
53782;DHT22;39692;53.114;7.060;2023-03-01T17:25:58;4.70;99.90
53782;DHT22;39692;53.114;7.060;2023-03-01T17:28:27;5.00;99.90
53782;DHT22;39692;53.114;7.060;2023-03-01T17:30:53;4.60;99.90
53782;DHT22;39692;53.114;7.060;2023-03-01T17:33:20;5.10;99.90
53782;DHT22;39692;53.114;7.060;2023-03-01T17:35:46;4.60;99.90
53782;DHT22;39692;53.114;7.060;2023-03-01T17:38:15;4.70;99.90
53782;DHT22;39692;53.114;7.060;2023-03-01T17:40:42;4.80;99.90
53782;DHT22;39692;53.114;7.060;2023-03-01T17:43:11;4.70;99.90
53782;DHT22;39692;53.114;7.060;2023-03-01T17:45:38;4.60;99.90
53782;DHT22;39692;53.114;7.060;2023-03-01T17:48:05;4.40;99.90
53782;DHT22;39692;53.114;7.060;2023-03-01T17:50:31;4.20;99.90
53782;DHT22;39692;53.114;7.060;2023-03-01T17:52:57;4.40;99.90
53782;DHT22;39692;53.114;7.060;2023-03-01T17:55:23;4.40;99.90
53782;DHT22;39692;53.114;7.060;2023-03-01T17:57:49;4.50;99.90
53782;DHT22;39692;53.114;7.060;2023-03-01T18:00:16;4.40;99.90
53782;DHT22;39692;53.114;7.060;2023-03-01T18:02:43;4.10;99.90
53782;DHT22;39692;53.114;7.060;2023-03-01T18:05:09;4.10;99.90
53782;DHT22;39692;53.114;7.060;2023-03-01T18:07:35;3.90;99.90
53782;DHT22;39692;53.114;7.060;2023-03-01T18:10:02;3.90;99.90
53782;DHT22;39692;53.114;7.060;2023-03-01T18:12:29;3.90;99.90
53782;DHT22;39692;53.114;7.060;2023-03-01T18:14:55;4.10;99.90
53782;DHT22;39692;53.114;7.060;2023-03-01T18:17:23;3.70;99.90
53782;DHT22;39692;53.114;7.060;2023-03-01T18:19:50;3.50;99.90
53782;DHT22;39692;53.114;7.060;2023-03-01T18:22:16;3.60;99.90
53782;DHT22;39692;53.114;7.060;2023-03-01T18:24:42;3.90;99.90
53782;DHT22;39692;53.114;7.060;2023-03-01T18:27:08;3.80;99.90
53782;DHT22;39692;53.114;7.060;2023-03-01T18:29:35;3.80;99.90
53782;DHT22;39692;53.114;7.060;2023-03-01T18:32:02;3.70;99.90
53782;DHT22;39692;53.114;7.060;2023-03-01T18:34:27;3.70;99.90
53782;DHT22;39692;53.114;7.060;2023-03-01T18:36:53;3.20;99.90
53782;DHT22;39692;53.114;7.060;2023-03-01T18:39:22;3.30;99.90
53782;DHT22;39692;53.114;7.060;2023-03-01T18:41:48;3.70;99.90
53782;DHT22;39692;53.114;7.060;2023-03-01T18:44:14;3.70;99.90
53782;DHT22;39692;53.114;7.060;2023-03-01T18:46:40;3.50;99.90
53782;DHT22;39692;53.114;7.060;2023-03-01T18:49:07;3.30;99.90
53782;DHT22;39692;53.114;7.060;2023-03-01T18:51:33;3.60;99.90
53782;DHT22;39692;53.114;7.060;2023-03-01T18:54:02;3.00;99.90
53782;DHT22;39692;53.114;7.060;2023-03-01T18:56:29;3.30;99.90
53782;DHT22;39692;53.114;7.060;2023-03-01T18:58:55;3.10;99.90
53782;DHT22;39692;53.114;7.060;2023-03-01T19:01:23;3.20;99.90
53782;DHT22;39692;53.114;7.060;2023-03-01T19:03:50;3.40;99.90
53782;DHT22;39692;53.114;7.060;2023-03-01T19:06:18;3.60;99.90
53782;DHT22;39692;53.114;7.060;2023-03-01T19:08:44;3.30;99.90
53782;DHT22;39692;53.114;7.060;2023-03-01T19:11:11;3.50;99.90
53782;DHT22;39692;53.114;7.060;2023-03-01T19:16:07;3.30;99.90
53782;DHT22;39692;53.114;7.060;2023-03-01T19:18:34;3.80;99.90
53782;DHT22;39692;53.114;7.060;2023-03-01T19:21:02;3.80;99.90
53782;DHT22;39692;53.114;7.060;2023-03-01T19:23:30;3.40;99.90
53782;DHT22;39692;53.114;7.060;2023-03-01T19:26:10;3.40;99.90
53782;DHT22;39692;53.114;7.060;2023-03-01T19:28:36;3.40;99.90
53782;DHT22;39692;53.114;7.060;2023-03-01T19:31:05;3.50;99.90
53782;DHT22;39692;53.114;7.060;2023-03-01T19:33:33;4.00;99.90
53782;DHT22;39692;53.114;7.060;2023-03-01T19:35:59;4.00;99.90
53782;DHT22;39692;53.114;7.060;2023-03-01T19:38:25;3.60;99.90
53782;DHT22;39692;53.114;7.060;2023-03-01T19:40:52;4.60;99.90
53782;DHT22;39692;53.114;7.060;2023-03-01T19:43:18;3.70;99.90
53782;DHT22;39692;53.114;7.060;2023-03-01T19:45:44;3.70;99.90
53782;DHT22;39692;53.114;7.060;2023-03-01T19:50:37;3.70;99.90
53782;DHT22;39692;53.114;7.060;2023-03-01T19:53:03;4.00;99.90
53782;DHT22;39692;53.114;7.060;2023-03-01T19:55:29;3.80;99.90
53782;DHT22;39692;53.114;7.060;2023-03-01T20:00:21;3.80;99.90
53782;DHT22;39692;53.114;7.060;2023-03-01T20:05:13;3.80;99.90
53782;DHT22;39692;53.114;7.060;2023-03-01T20:07:39;4.40;99.90
